Data for 09/06/2016

Time Sea-Level Adjusted Pressure Absolute Pressure Temperature Relative Humidity Dew Point   
(mb) (inHg) (mb) (inHg) (C) (F) (%) (C) (F)
00:05 1020 30.12 849 25.07 5 40.9 83 2.3 36.1
00:10 1020 30.12 849 25.07 4.9 40.8 84 2.3 36.2
00:15 1020 30.12 849 25.07 4.8 40.7 83 2.2 36
00:20 1020 30.12 849 25.07 4.9 40.7 83 2.2 36
00:25 1020 30.12 849 25.07 4.9 40.7 83 2.2 35.9
00:30 1020 30.12 849 25.07 4.6 40.4 84 2.1 35.8
00:35 1020 30.12 849 25.07 4.5 40.1 84 2 35.6
00:40 1020 30.12 849 25.07 4.5 40.1 84 2 35.6
00:45 1020 30.12 849 25.07 4.6 40.2 84 2 35.6
00:50 1020 30.12 849 25.07 4.5 40.2 83 1.9 35.4
00:55 1019 30.09 849 25.07 4.6 40.3 82 1.8 35.2
01:00 1019 30.09 849 25.07 4.5 40.1 82 1.7 35
01:05 1019 30.09 848 25.04 4.4 39.9 81 1.5 34.6
01:10 1019 30.09 848 25.04 4.2 39.5 82 1.4 34.5
01:15 1019 30.09 848 25.04 4.2 39.5 81 1.3 34.3
01:20 1019 30.09 848 25.04 4.2 39.6 81 1.3 34.3
01:25 1019 30.09 848 25.04 4.2 39.6 81 1.3 34.3
01:30 1019 30.09 848 25.04 4 39.2 82 1.2 34.2
01:35 1019 30.09 848 25.04 3.9 39.1 82 1.2 34.2
01:40 1019 30.09 848 25.04 3.9 39 82 1.2 34.1
01:45 1019 30.09 848 25.04 3.9 39 82 1.2 34.1
01:50 1019 30.09 848 25.04 4 39.2 81 1.1 33.9
01:55 1019 30.09 848 25.04 4.1 39.4 81 1.1 33.9
02:00 1019 30.09 848 25.04 4.1 39.3 81 1.1 33.9
02:05 1019 30.09 848 25.04 4.1 39.3 80 1 33.8
02:10 1019 30.09 848 25.04 4.2 39.6 79 0.9 33.7
02:15 1019 30.09 848 25.04 4.4 40 78 0.9 33.7
02:20 1019 30.09 848 25.04 4.6 40.3 77 0.9 33.6
02:25 1019 30.09 848 25.04 4.6 40.3 77 1 33.7
02:30 1019 30.09 848 25.04 4.9 40.9 75 0.9 33.6
02:35 1019 30.09 848 25.04 5.2 41.3 75 1.1 34
02:40 1019 30.09 848 25.04 4.9 40.7 77 1.2 34.2
02:45 1019 30.09 848 25.04 4.6 40.3 78 1.2 34.1
02:50 1019 30.09 848 25.04 4.5 40.1 79 1.1 34
02:55 1019 30.09 848 25.04 4.4 39.9 79 1.1 34
03:00 1019 30.09 848 25.04 4.3 39.8 79 1 33.7
03:05 1019 30.09 848 25.04 4.6 40.4 77 0.9 33.7
03:10 1019 30.09 848 25.04 4.7 40.5 77 1.1 33.9
03:15 1019 30.09 848 25.04 4.6 40.2 78 1 33.8
03:20 1019 30.09 848 25.04 4.3 39.8 79 1.1 33.9
03:25 1019 30.09 848 25.04 4 39.2 80 0.9 33.7
03:30 1019 30.09 848 25.04 3.8 38.9 81 0.9 33.7
03:35 1019 30.09 848 25.04 3.7 38.6 82 0.8 33.5
03:40 1019 30.09 848 25.04 3.7 38.7 81 0.7 33.3
03:45 1019 30.09 848 25.04 3.7 38.6 82 0.8 33.4
03:50 1019 30.09 848 25.04 3.8 38.8 80 0.7 33.3
03:55 1019 30.09 848 25.04 4 39.3 79 0.7 33.3
04:00 1019 30.09 848 25.04 4.2 39.5 79 0.8 33.5
04:05 1019 30.09 848 25.04 4.1 39.4 80 0.9 33.6
04:10 1019 30.09 848 25.04 4 39.2 80 0.9 33.6
04:15 1019 30.09 848 25.04 3.9 39.1 81 0.9 33.7
04:20 1019 30.09 848 25.04 3.7 38.7 82 0.9 33.5
04:25 1019 30.09 848 25.04 3.4 38.2 83 0.8 33.4
04:30 1019 30.09 848 25.04 3.4 38.1 83 0.8 33.5
04:35 1019 30.09 848 25.04 3.4 38.2 83 0.8 33.4
04:40 1019 30.09 848 25.04 3.8 38.8 81 0.8 33.4
04:45 1019 30.09 848 25.04 4.1 39.3 80 0.8 33.5
04:50 1019 30.09 848 25.04 4.3 39.7 78 0.8 33.5
04:55 1019 30.09 848 25.04 4.4 40 78 0.8 33.5
05:00 1019 30.09 848 25.04 4.4 39.9 79 1.1 34
05:05 1019 30.09 848 25.04 4.1 39.4 80 1 33.7
05:10 1019 30.09 848 25.04 4.1 39.4 79 0.8 33.5
05:15 1019 30.09 848 25.04 4.3 39.7 78 0.9 33.5
05:20 1019 30.09 848 25.04 4.4 39.9 79 1 33.9
05:25 1019 30.09 848 25.04 4.2 39.5 80 1 33.9
05:30 1019 30.09 848 25.04 4 39.1 81 0.9 33.7
05:35 1019 30.09 848 25.04 4 39.1 80 0.8 33.5
05:40 1019 30.09 848 25.04 4.2 39.5 79 0.9 33.6
05:45 1019 30.09 848 25.04 4.2 39.6 79 0.9 33.6
05:50 1019 30.09 848 25.04 4.3 39.7 78 0.8 33.5
05:55 1019 30.09 848 25.04 4.4 39.8 78 0.9 33.6
06:00 1019 30.09 848 25.04 4.5 40.1 77 0.9 33.6
06:05 1019 30.09 848 25.04 4.6 40.2 77 0.9 33.6
06:10 1019 30.09 848 25.04 4.6 40.4 76 0.7 33.3
06:15 1019 30.09 848 25.04 4.7 40.5 77 1 33.7
06:20 1019 30.09 848 25.04 4.8 40.6 75 0.7 33.3
06:25 1019 30.09 848 25.04 5 41.1 74 0.7 33.3
06:30 1019 30.09 848 25.04 5.1 41.2 74 0.9 33.6
06:35 1019 30.09 848 25.04 5.1 41.1 75 1 33.8
06:40 1019 30.09 848 25.04 4.9 40.9 76 1.1 33.9
06:45 1019 30.09 848 25.04 4.6 40.3 78 1.1 34
06:50 1019 30.09 848 25.04 4.4 39.9 78 1 33.7
06:55 1019 30.09 848 25.04 4.5 40 78 0.9 33.7
07:00 1019 30.09 848 25.04 4.7 40.5 76 0.9 33.6
07:05 1019 30.09 848 25.04 4.6 40.3 78 1.1 34
07:10 1019 30.09 848 25.04 4.5 40.1 78 1 33.8
07:15 1019 30.09 848 25.04 4.7 40.4 77 1 33.8
07:20 1019 30.09 848 25.04 4.7 40.5 76 0.9 33.6
07:25 1019 30.09 848 25.04 5 41 75 0.9 33.6
07:30 1019 30.09 848 25.04 5.3 41.5 73 0.9 33.6
07:35 1019 30.09 848 25.04 5.8 42.4 70 0.8 33.4
07:40 1019 30.09 848 25.04 6.1 43 69 0.9 33.6
07:45 1019 30.09 848 25.04 6.1 43 70 1 33.9
07:50 1019 30.09 848 25.04 6.2 43.1 70 1.2 34.2
07:55 1019 30.09 848 25.04 6.1 42.9 73 1.5 34.7
08:00 1019 30.09 848 25.04 5.7 42.3 74 1.5 34.6
08:05 1019 30.09 848 25.04 5.8 42.5 74 1.5 34.7
08:10 1019 30.09 848 25.04 6 42.8 72 1.4 34.4
08:15 1019 30.09 848 25.04 6.3 43.4 71 1.5 34.6
08:20 1019 30.09 848 25.04 6.6 43.9 69 1.4 34.5
08:25 1019 30.09 848 25.04 6.9 44.4 69 1.5 34.8
08:30 1019 30.09 848 25.04 7.1 44.8 69 1.7 35.1
08:35 1019 30.09 848 25.04 7.3 45.2 67 1.7 35.1
08:40 1019 30.09 848 25.04 7.8 46 67 2 35.6
08:45 1019 30.09 848 25.04 7.9 46.2 66 2 35.6
08:50 1019 30.09 848 25.04 8.2 46.7 67 2.4 36.3
08:55 1019 30.09 848 25.04 8.1 46.6 67 2.3 36.1
09:00 1019 30.09 848 25.04 8.2 46.8 68 2.7 36.9
09:05 1019 30.09 848 25.04 8.6 47.4 67 2.8 37
09:10 1019 30.09 848 25.04 8.6 47.4 66 2.7 36.8
09:15 1019 30.09 848 25.04 9.2 48.6 59 1.7 35
09:20 1019 30.09 848 25.04 9.5 49.1 59 2 35.5
09:25 1019 30.09 848 25.04 9.9 49.7 59 2.3 36.1
09:30 1019 30.09 848 25.04 10.1 50.1 59 2.5 36.4
09:35 1019 30.09 848 25.04 10.4 50.6 58 2.5 36.4
09:40 1019 30.09 848 25.04 10.5 50.9 56 2.2 36
09:45 1019 30.09 848 25.04 10.9 51.7 51 1.4 34.4
09:50 1019 30.09 848 25.04 11.2 52.2 54 2.2 35.9
09:55 1019 30.09 848 25.04 11.7 53.1 51 2.1 35.7
10:00 1019 30.09 848 25.04 12 53.7 53 2.8 37
10:05 1019 30.09 848 25.04 12.4 54.4 53 3 37.5
10:10 1019 30.09 848 25.04 13 55.3 52 3.4 38.2
10:15 1019 30.09 848 25.04 13 55.4 50 2.8 37
10:20 1019 30.09 848 25.04 12.5 54.6 55 3.7 38.7
10:25 1019 30.09 848 25.04 12.4 54.4 54 3.4 38.1
10:30 1019 30.09 848 25.04 13 55.4 52 3.4 38.1
10:35 1019 30.09 848 25.04 13.5 56.4 52 3.9 39.1
10:40 1019 30.09 848 25.04 13.2 55.7 50 3.1 37.6
10:45 1019 30.09 848 25.04 13.7 56.7 48 2.8 37.1
10:50 1019 30.09 848 25.04 14.6 58.3 46 3.2 37.8
10:55 1019 30.09 848 25.04 14.7 58.5 47 3.5 38.3
11:00 1019 30.09 848 25.04 14.6 58.2 46 3.2 37.8
11:05 1019 30.09 848 25.04 14 57.3 49 3.6 38.5
11:10 1019 30.09 848 25.04 13.2 55.7 48 2.4 36.3
11:15 1019 30.09 848 25.04 13.3 55.9 48 2.6 36.7
11:20 1019 30.09 848 25.04 14.7 58.4 43 2.2 36
11:25 1018 30.06 848 25.04 15.2 59.3 44 3.1 37.6
11:30 1018 30.06 848 25.04 15.3 59.6 48 4.5 40.1
11:35 1018 30.06 848 25.04 14.4 58 46 3.1 37.6
11:40 1018 30.06 848 25.04 14.9 58.9 45 3.1 37.7
11:45 1018 30.06 847 25.01 14 57.2 45 2.4 36.4
11:50 1018 30.06 847 25.01 14.7 58.5 42 1.9 35.5
11:55 1018 30.06 847 25.01 15.1 59.2 42 2.2 36
12:00 1018 30.06 847 25.01 15.3 59.6 42 2.7 36.8
12:05 1018 30.06 847 25.01 16.5 61.8 39 2.7 36.8
12:10 1018 30.06 847 25.01 16.2 61.2 41 2.9 37.2
12:15 1018 30.06 847 25.01 16.6 61.9 40 3.1 37.6
12:20 1018 30.06 847 25.01 17.2 63 35 1.7 35.1
12:25 1018 30.06 847 25.01 17.4 63.3 38 3 37.4
12:30 1018 30.06 847 25.01 16.2 61.2 42 3.2 37.8
12:35 1018 30.06 847 25.01 16.5 61.7 39 2.6 36.6
12:40 1018 30.06 847 25.01 16.3 61.4 40 2.8 37
12:45 1017 30.03 847 25.01 17.8 64 34 1.7 35
12:50 1017 30.03 847 25.01 17.7 63.8 36 2.5 36.5
12:55 1017 30.03 847 25.01 17 62.7 33 1 33.7
13:00 1017 30.03 846 24.98 17 62.6 34 1.2 34.1
13:05 1017 30.03 846 24.98 17.2 63 35 2 35.5
13:10 1017 30.03 846 24.98 16.7 62 36 1.5 34.8
13:15 1017 30.03 846 24.98 17.1 62.9 33 0.7 33.3
13:20 1017 30.03 846 24.98 17.2 63 32 0.5 32.9
13:25 1017 30.03 846 24.98 17.2 63 31 0.3 32.5
13:30 1017 30.03 846 24.98 18.8 65.8 29 0.7 33.2
13:35 1017 30.03 846 24.98 18.7 65.6 31 1.4 34.5
13:40 1017 30.03 846 24.98 18.4 65.2 30 0.7 33.2
13:45 1017 30.03 846 24.98 19.1 66.3 28 0.3 32.6
13:50 1017 30.03 846 24.98 18.9 66.1 30 1 33.7
13:55 1017 30.03 846 24.98 18.9 66.1 31 1.5 34.7
14:00 1017 30.03 846 24.98 18.4 65.1 30 0.5 32.9
14:05 1016 30 846 24.98 19.4 67 28 0.5 32.9
14:10 1016 30 846 24.98 19.4 67 28 0.7 33.3
14:15 1016 30 846 24.98 19 66.1 28 0.3 32.5
14:20 1016 30 846 24.98 19.3 66.8 27 -0.2 31.6
14:25 1016 30 845 24.95 18.6 65.4 29 0.1 32.2
14:30 1016 30 845 24.95 18.7 65.7 28 -0.1 31.8
14:35 1016 30 845 24.95 20 68 25 -0.4 31.3
14:40 1016 30 845 24.95 20.4 68.8 25 0.1 32.1
14:45 1016 30 845 24.95 20.2 68.4 25 -0.3 31.5
14:50 1016 30 845 24.95 20.4 68.7 27 0.8 33.5
14:55 1016 30 845 24.95 20.2 68.3 27 0.6 33
15:00 1016 30 845 24.95 19.9 67.8 27 0.3 32.6
15:05 1016 30 845 24.95 20.1 68.1 28 1 33.8
15:10 1016 30 845 24.95 19.9 67.8 26 0.1 32.1
15:15 1016 30 845 24.95 19.1 66.3 27 0 32.1
15:20 1016 30 845 24.95 20 67.9 25 -0.6 30.9
15:25 1016 30 845 24.95 20.8 69.4 25 0.3 32.5
15:30 1016 30 845 24.95 20.5 69 25 -0.2 31.6
15:35 1016 30 845 24.95 20.9 69.7 23 -0.7 30.7
15:40 1016 30 845 24.95 21.4 70.6 22 -1 30.2
15:45 1016 30 845 24.95 20.8 69.4 24 -0.6 30.9
15:50 1016 30 845 24.95 20.1 68.1 23 -1.4 29.5
15:55 1016 30 845 24.95 20.8 69.5 23 -1.1 29.9
16:00 1016 30 845 24.95 20.7 69.2 23 -0.9 30.5
16:05 1016 30 845 24.95 21.1 70 23 -0.7 30.7
16:10 1015 29.97 845 24.95 21.5 70.6 20 -2.3 27.9
16:15 1015 29.97 845 24.95 21.5 70.8 21 -1.5 29.4
16:20 1015 29.97 845 24.95 21 69.8 23 -0.9 30.5
16:25 1015 29.97 845 24.95 21.3 70.4 24 -0.1 31.9
16:30 1015 29.97 845 24.95 21.6 70.9 23 -0.4 31.2
16:35 1015 29.97 845 24.95 20.6 69.2 22 -1.5 29.3
16:40 1015 29.97 845 24.95 21.3 70.4 22 -1.1 30
16:45 1015 29.97 845 24.95 22.1 71.7 21 -1.4 29.5
16:50 1015 29.97 845 24.95 21.1 69.9 22 -1.3 29.7
16:55 1015 29.97 845 24.95 21.5 70.6 21 -1.4 29.4
17:00 1015 29.97 845 24.95 21 69.8 21 -1.6 29
17:05 1015 29.97 845 24.95 21.3 70.3 22 -1.2 29.8
17:10 1015 29.97 845 24.95 20.9 69.7 23 -0.8 30.5
17:15 1015 29.97 845 24.95 20.3 68.5 24 -0.6 31
17:20 1015 29.97 845 24.95 19.7 67.5 28 0.7 33.2
17:25 1015 29.97 844 24.92 20.5 68.8 24 -0.9 30.3
17:30 1015 29.97 844 24.92 20.1 68.2 25 -0.4 31.3
17:35 1015 29.97 844 24.92 19.9 67.9 25 -0.3 31.4
17:40 1015 29.97 844 24.92 20.5 68.9 23 -0.9 30.3
17:45 1015 29.97 844 24.92 20.2 68.4 24 -1.1 30.1
17:50 1015 29.97 844 24.92 20.3 68.6 21 -2.5 27.5
17:55 1015 29.97 844 24.92 21.1 69.9 20 -2.6 27.3
18:00 1015 29.97 844 24.92 21.8 71.2 20 -1.8 28.8
18:05 1015 29.97 844 24.92 21.8 71.3 21 -1 30.3
18:10 1015 29.97 844 24.92 20.9 69.6 20 -3 26.7
18:15 1015 29.97 844 24.92 20.5 68.9 25 0.1 32.1
18:20 1015 29.97 844 24.92 19.8 67.6 24 -1.1 30
18:25 1015 29.97 845 24.95 19.6 67.3 23 -1.7 28.9
18:30 1015 29.97 845 24.95 19.6 67.2 23 -2.1 28.3
18:35 1015 29.97 845 24.95 19.4 67 23 -1.9 28.6
18:40 1015 29.97 845 24.95 19.4 67 18 -5.1 22.8
18:45 1015 29.97 845 24.95 19.6 67.2 20 -3.9 25
18:50 1015 29.97 845 24.95 19.7 67.5 22 -2.6 27.3
18:55 1015 29.97 845 24.95 19.8 67.7 22 -2.4 27.7
19:00 1015 29.97 845 24.95 19.7 67.5 24 -1.4 29.6
19:05 1015 29.97 845 24.95 19.4 66.9 25 -0.8 30.5
19:10 1015 29.97 845 24.95 19.2 66.6 24 -1.9 28.7
19:15 1015 29.97 845 24.95 19.1 66.4 19 -5 22.9
19:20 1015 29.97 845 24.95 19 66.2 19 -5.3 22.5
19:25 1015 29.97 845 24.95 19 66.3 23 -2.4 27.6
19:30 1015 29.97 845 24.95 18.9 66 28 0.1 32.2
19:35 1015 29.97 845 24.95 18.4 65.1 28 -0.5 31.2
19:40 1015 29.97 845 24.95 18.1 64.6 26 -1.5 29.3
19:45 1015 29.97 845 24.95 17.9 64.2 29 -0.5 31.2
19:50 1015 29.97 845 24.95 17.7 63.8 20 -5.8 21.6
19:55 1015 29.97 845 24.95 18.1 64.5 32 1.4 34.4
20:00 1015 29.97 845 24.95 17 62.5 36 1.8 35.3
20:05 1015 29.97 845 24.95 15.7 60.3 43 3.3 38
20:10 1015 29.97 845 24.95 14.8 58.6 46 3.2 37.8
20:15 1015 29.97 845 24.95 14.1 57.4 47 3 37.4
20:20 1016 30 845 24.95 13.6 56.4 48 2.8 37
20:25 1016 30 845 24.95 13.3 55.9 47 2.2 36
20:30 1016 30 845 24.95 13.4 56 45 1.8 35.2
20:35 1016 30 845 24.95 13.6 56.4 44 1.6 35
20:40 1016 30 845 24.95 13.4 56.1 45 1.9 35.5
20:45 1016 30 845 24.95 13.1 55.6 50 3 37.4
20:50 1016 30 845 24.95 12.7 54.9 49 2.4 36.3
20:55 1016 30 845 24.95 12.7 54.8 49 2.2 35.9
21:00 1016 30 845 24.95 12.7 54.9 47 1.7 35.1
21:05 1016 30 845 24.95 12.8 55.1 46 1.6 34.9
21:10 1016 30 845 24.95 12.8 55 48 2 35.7
21:15 1016 30 845 24.95 12.9 55.2 48 2.2 35.9
21:20 1016 30 845 24.95 12.9 55.2 46 1.5 34.7
21:25 1016 30 845 24.95 13 55.3 46 1.6 34.8
21:30 1016 30 845 24.95 13.1 55.7 45 1.5 34.7
21:35 1016 30 845 24.95 13.2 55.7 43 0.9 33.7
21:40 1016 30 845 24.95 13.5 56.4 31 -3.3 26
21:45 1016 30 846 24.98 15.1 59.1 32 -1.4 29.6
21:50 1016 30 845 24.95 16.1 60.9 30 -1.5 29.3
21:55 1016 30 845 24.95 16.2 61.1 32 -0.5 31.1
22:00 1016 30 845 24.95 15.8 60.4 32 -0.9 30.5
22:05 1016 30 845 24.95 15.9 60.6 29 -1.9 28.6
22:10 1016 30 845 24.95 16.1 61.1 28 -2.2 28.1
22:15 1016 30 845 24.95 16.1 60.9 31 -0.8 30.5
22:20 1016 30 846 24.98 16 60.8 24 -4.4 24.1
22:25 1016 30 845 24.95 16.3 61.3 30 -1.3 29.7
22:30 1016 30 846 24.98 16 60.7 32 -0.7 30.7
22:35 1016 30 846 24.98 15.7 60.3 30 -1.9 28.6
22:40 1016 30 846 24.98 16.4 61.5 26 -3.2 26.2
22:45 1016 30 846 24.98 16.8 62.3 27 -2.1 28.3
22:50 1016 30 846 24.98 16.6 61.8 28 -1.7 29
22:55 1016 30 846 24.98 16.6 61.9 26 -2.9 26.7
23:00 1017 30.03 846 24.98 16.8 62.3 27 -2.2 28.1
23:05 1017 30.03 846 24.98 16.6 61.8 29 -1.6 29.2
23:10 1017 30.03 846 24.98 16.1 61 30 -1.5 29.4
23:15 1017 30.03 846 24.98 15.8 60.5 31 -1 30.2
23:20 1017 30.03 846 24.98 15.7 60.3 31 -1.4 29.5
23:25 1017 30.03 846 24.98 15.7 60.3 33 -0.4 31.3
23:30 1017 30.03 846 24.98 15.3 59.6 36 0.5 32.9
23:35 1017 30.03 846 24.98 15 59 38 0.9 33.5
23:40 1017 30.03 846 24.98 14.7 58.4 41 1.8 35.2
23:45 1017 30.03 846 24.98 14.2 57.5 46 2.7 36.9
23:50 1017 30.03 846 24.98 13.6 56.5 51 3.6 38.5
23:55 1017 30.03 846 24.98 12.9 55.3 53 3.7 38.6
24:00 1017 30.03 846 24.98 12.5 54.6 54 3.7 38.6